Time;durP1;ratioP1;P1;durP2;ratioP2;P2;SDS_P1;SDS_P2;PMS_P1;PMS_P2;Temp;Humidity;BMP_temperature;BMP_pressure;BME280_temperature;BME280_humidity;BME280_pressure;Samples;Min_cycle;Max_cycle;Signal;HPM_P1;HPM_P2
2021/01/08 00:01:22;;;;;;;5.26;4.64;;;3.40;99.90;;;7.92;98.56;101108.63;1718882;74;24440;-73
2021/01/08 00:03:41;;;;;;;4.55;3.98;;;3.40;99.90;;;7.85;98.54;101107.14;1712185;74;24473;-73
2021/01/08 00:05:57;;;;;;;4.51;4.09;;;3.40;99.90;;;7.85;98.78;101108.03;1719249;74;24451;-73
2021/01/08 00:08:18;;;;;;;5.64;4.61;;;3.50;99.90;;;7.97;98.46;101104.44;1723889;73;24499;-74
2021/01/08 00:10:34;;;;;;;4.87;4.24;;;3.50;99.90;;;7.96;98.57;101105.29;1719017;74;24888;-74
2021/01/08 00:12:50;;;;;;;6.72;5.19;;;3.50;99.90;;;8.01;98.53;101108.88;1719682;74;24456;-74
2021/01/08 00:15:09;;;;;;;5.11;4.53;;;3.50;99.90;;;7.86;98.47;101110.18;1716297;74;24975;-73
2021/01/08 00:17:31;;;;;;;5.29;4.65;;;3.50;99.90;;;7.96;98.75;101103.99;1718715;74;24427;-75
2021/01/08 00:19:48;;;;;;;5.62;4.83;;;3.50;99.90;;;8.08;98.60;101107.31;1712246;74;24442;-75
2021/01/08 00:22:04;;;;;;;6.37;5.22;;;3.50;99.90;;;7.89;98.31;101107.70;1718085;73;24433;-74
2021/01/08 00:24:19;;;;;;;5.53;4.94;;;3.60;99.90;;;7.97;98.56;101104.84;1737943;73;24444;-74
2021/01/08 00:26:35;;;;;;;5.03;4.53;;;3.50;99.90;;;8.06;98.32;101107.25;1731454;73;24427;-75
2021/01/08 00:28:52;;;;;;;5.51;4.79;;;3.60;99.90;;;8.03;98.42;101108.91;1728473;73;24596;-74
2021/01/08 00:31:08;;;;;;;6.02;4.41;;;3.50;99.90;;;8.02;98.30;101111.92;1738879;73;24403;-74
2021/01/08 00:33:24;;;;;;;4.86;4.35;;;3.60;99.90;;;7.97;97.06;101108.33;1724786;74;24491;-74
2021/01/08 00:35:42;;;;;;;4.80;4.30;;;3.60;99.90;;;8.00;97.95;101106.25;1741075;73;24566;-74
2021/01/08 00:37:59;;;;;;;5.04;4.37;;;3.60;99.90;;;7.91;98.05;101109.89;1724679;74;24896;-74
2021/01/08 00:40:16;;;;;;;5.48;4.35;;;3.60;99.90;;;8.01;98.14;101111.87;1724648;73;24435;-74
2021/01/08 00:42:33;;;;;;;5.47;4.72;;;3.60;99.90;;;8.04;98.21;101109.36;1725412;73;24427;-74
2021/01/08 00:44:49;;;;;;;5.75;4.53;;;3.60;99.90;;;8.06;98.52;101111.58;1731225;73;24420;-75
2021/01/08 00:47:08;;;;;;;5.07;4.20;;;3.60;99.90;;;8.09;97.86;101111.66;1734062;73;24851;-74
2021/01/08 00:49:27;;;;;;;5.22;4.49;;;3.60;99.90;;;8.25;98.43;101112.52;1736900;73;24438;-73
2021/01/08 00:51:47;;;;;;;5.45;4.74;;;3.60;99.90;;;7.97;98.27;101112.22;1740217;73;24440;-74
2021/01/08 00:54:04;;;;;;;5.16;4.25;;;3.60;99.90;;;8.00;97.74;101111.44;1735293;73;24918;-74
2021/01/08 00:56:22;;;;;;;5.06;4.42;;;3.60;99.90;;;8.10;98.11;101111.69;1730021;73;24549;-74
2021/01/08 00:58:40;;;;;;;6.93;5.32;;;3.60;99.90;;;8.01;97.84;101107.98;1744721;73;24352;-75
2021/01/08 01:00:56;;;;;;;5.92;4.57;;;3.60;99.90;;;7.96;98.14;101117.36;1724496;74;24436;-74
2021/01/08 01:03:13;;;;;;;5.58;4.73;;;3.60;99.90;;;8.20;98.29;101116.27;1730320;73;24473;-74
2021/01/08 01:05:29;;;;;;;5.79;4.96;;;3.60;99.90;;;8.06;98.12;101115.47;1735139;73;24433;-74
2021/01/08 01:07:52;;;;;;;6.68;5.09;;;3.60;99.90;;;8.13;97.68;101110.88;1730974;73;24509;-74
2021/01/08 01:10:13;;;;;;;6.26;5.38;;;3.60;99.90;;;8.09;97.88;101115.55;1726521;73;24977;-75
2021/01/08 01:12:30;;;;;;;6.78;5.48;;;3.60;99.90;;;8.21;98.30;101115.83;1732348;73;24434;-75
2021/01/08 01:14:47;;;;;;;5.80;4.91;;;3.60;99.90;;;8.20;97.88;101114.98;1724570;74;24424;-73
2021/01/08 01:17:07;;;;;;;6.44;5.29;;;3.60;99.90;;;8.22;97.53;101117.16;1725516;73;24434;-74
2021/01/08 01:19:23;;;;;;;6.54;5.21;;;3.60;99.90;;;8.25;97.56;101116.41;1724621;74;24581;-73
2021/01/08 01:21:39;;;;;;;6.50;5.60;;;3.60;99.90;;;8.17;97.94;101114.87;1736884;73;24447;-74
2021/01/08 01:23:56;;;;;;;6.18;5.39;;;3.60;99.90;;;8.18;97.72;101111.45;1726420;73;24448;-73
2021/01/08 01:26:13;;;;;;;8.02;5.77;;;3.60;99.90;;;8.28;96.80;101111.30;1731137;73;24525;-74
2021/01/08 01:28:30;;;;;;;7.52;5.42;;;3.60;99.90;;;8.39;97.54;101109.83;1735312;73;24430;-75
2021/01/08 01:30:46;;;;;;;6.82;5.40;;;3.60;99.90;;;8.34;97.12;101112.73;1726346;73;24435;-73
2021/01/08 01:33:02;;;;;;;6.04;5.38;;;3.60;99.90;;;8.18;97.38;101120.53;1725052;73;24895;-74
2021/01/08 01:35:18;;;;;;;6.16;5.54;;;3.70;99.90;;;8.19;97.69;101122.72;1730850;73;24431;-75
2021/01/08 01:37:34;;;;;;;6.12;5.19;;;3.70;99.90;;;8.17;97.93;101123.09;1731231;73;24502;-74
2021/01/08 01:39:50;;;;;;;6.79;5.43;;;3.70;99.90;;;8.07;97.25;101128.88;1724583;74;24837;-73
2021/01/08 01:42:07;;;;;;;6.80;5.22;;;3.70;99.90;;;8.13;97.88;101126.44;1742685;73;24875;-74
2021/01/08 01:44:23;;;;;;;6.73;5.92;;;3.70;99.90;;;8.16;97.90;101130.40;1724762;74;24928;-74
2021/01/08 01:46:40;;;;;;;7.46;5.44;;;3.70;99.90;;;8.06;97.87;101135.77;1725690;73;24435;-74
2021/01/08 01:48:57;;;;;;;6.60;5.28;;;3.60;99.90;;;8.12;97.72;101138.55;1731356;73;24483;-75
2021/01/08 01:51:13;;;;;;;6.03;5.29;;;3.70;99.90;;;8.05;97.08;101139.22;1725020;73;24435;-73
2021/01/08 01:53:33;;;;;;;7.12;5.24;;;3.60;99.90;;;8.02;97.46;101139.14;1730979;73;24498;-74
2021/01/08 01:55:50;;;;;;;8.18;5.22;;;3.60;99.90;;;8.05;98.14;101144.81;1730683;73;24915;-74
2021/01/08 01:58:07;;;;;;;5.88;5.13;;;3.60;99.90;;;8.11;97.87;101142.41;1736309;73;24419;-73
2021/01/08 02:00:24;;;;;;;6.72;5.74;;;3.60;99.90;;;8.09;98.14;101151.84;1734626;73;24450;-74
2021/01/08 02:02:45;;;;;;;6.55;5.47;;;3.60;99.90;;;8.01;98.34;101150.37;1731211;73;24425;-75
2021/01/08 02:05:06;;;;;;;6.36;5.34;;;3.60;99.90;;;7.91;98.19;101150.07;1735171;73;24478;-74
2021/01/08 02:07:26;;;;;;;5.61;5.07;;;3.70;99.90;;;8.09;97.94;101150.55;1724703;74;24451;-73
2021/01/08 02:09:43;;;;;;;5.73;5.09;;;3.60;99.90;;;8.18;98.20;101152.07;1724690;73;24541;-74
2021/01/08 02:12:02;;;;;;;7.03;5.15;;;3.60;99.90;;;8.00;97.91;101152.92;1725298;73;24495;-74
2021/01/08 02:14:23;;;;;;;6.10;5.01;;;3.60;99.90;;;8.01;98.28;101152.07;1733124;73;24884;-74
2021/01/08 02:16:43;;;;;;;5.86;4.85;;;3.60;99.90;;;7.91;98.30;101155.25;1727919;73;24507;-73
2021/01/08 02:19:02;;;;;;;5.77;4.99;;;3.60;99.90;;;7.88;97.76;101155.18;1746460;73;24879;-75
2021/01/08 02:21:24;;;;;;;6.17;5.07;;;3.50;99.90;;;7.85;98.28;101160.28;1737932;73;24550;-75
2021/01/08 02:23:47;;;;;;;6.54;4.84;;;3.50;99.90;;;7.92;97.93;101158.33;1725397;73;24419;-74
2021/01/08 02:26:05;;;;;;;6.00;5.21;;;3.50;99.90;;;7.91;98.34;101156.55;1707919;74;24502;-75
2021/01/08 02:28:26;;;;;;;7.10;5.14;;;3.50;99.90;;;7.99;98.72;101159.81;1714871;74;24439;-74
2021/01/08 02:30:44;;;;;;;5.52;4.80;;;3.50;99.90;;;8.03;98.32;101164.67;1726996;74;24869;-74
2021/01/08 02:33:01;;;;;;;6.29;4.99;;;3.50;99.90;;;7.98;98.59;101154.59;1722697;74;24440;-73
2021/01/08 02:35:18;;;;;;;5.83;4.99;;;3.50;99.90;;;7.99;98.20;101157.62;1713808;73;25015;-74
2021/01/08 02:37:42;;;;;;;5.36;4.83;;;3.50;99.90;;;7.97;98.35;101156.70;1714880;74;24959;-73
2021/01/08 02:40:00;;;;;;;6.50;5.01;;;3.60;99.90;;;8.12;97.95;101163.59;1714063;74;24673;-74
2021/01/08 02:42:20;;;;;;;5.89;5.01;;;3.50;99.90;;;8.17;98.22;101160.70;1708864;74;24499;-74
2021/01/08 02:44:40;;;;;;;6.72;5.33;;;3.60;99.90;;;8.17;98.27;101168.48;1718637;74;24493;-73
2021/01/08 02:46:56;;;;;;;6.40;5.43;;;3.60;99.90;;;7.95;98.42;101164.89;1723230;74;24919;-73
2021/01/08 02:49:13;;;;;;;7.29;5.80;;;3.60;99.90;;;7.90;98.50;101163.88;1713788;73;24507;-74
2021/01/08 02:51:30;;;;;;;7.22;5.28;;;3.60;99.90;;;7.92;98.52;101168.70;1716611;74;24479;-73
2021/01/08 02:53:46;;;;;;;5.74;5.00;;;3.60;99.90;;;7.94;98.73;101162.70;1714565;74;24494;-74
2021/01/08 02:56:07;;;;;;;6.87;5.37;;;3.60;99.90;;;7.98;98.83;101162.37;1725360;74;24932;-74
2021/01/08 02:58:24;;;;;;;6.78;5.16;;;3.60;99.90;;;8.05;98.75;101166.86;1707238;75;24425;-74
2021/01/08 03:00:42;;;;;;;5.55;4.93;;;3.60;99.90;;;7.97;98.66;101170.96;1707779;74;24426;-74
2021/01/08 03:03:01;;;;;;;6.42;5.44;;;3.60;99.90;;;8.00;97.65;101171.08;1707488;74;24479;-74
2021/01/08 03:05:17;;;;;;;6.22;4.95;;;3.60;99.90;;;8.04;98.57;101168.59;1708373;74;24465;-75
2021/01/08 03:07:34;;;;;;;7.62;5.19;;;3.50;99.90;;;8.00;98.22;101168.48;1716069;74;24461;-75
2021/01/08 03:09:50;;;;;;;5.59;4.73;;;3.60;99.90;;;7.95;98.33;101164.89;1709422;74;24425;-74
2021/01/08 03:12:09;;;;;;;6.43;5.10;;;3.60;99.90;;;8.07;98.62;101166.48;1708213;74;24437;-74
2021/01/08 03:14:26;;;;;;;5.94;4.74;;;3.50;99.90;;;7.87;98.41;101168.99;1723129;74;24450;-74
2021/01/08 03:16:42;;;;;;;5.32;4.62;;;3.50;99.90;;;7.95;97.82;101168.77;1707468;74;25373;-73
2021/01/08 03:18:58;;;;;;;6.11;4.69;;;3.50;99.90;;;7.96;97.79;101171.81;1710323;74;24893;-73
2021/01/08 03:21:14;;;;;;;6.32;5.17;;;3.50;99.90;;;7.98;98.20;101168.85;1712014;74;24487;-73
2021/01/08 03:23:31;;;;;;;8.24;5.06;;;3.40;99.90;;;7.93;98.22;101167.84;1714261;72;24511;-73
2021/01/08 03:25:49;;;;;;;6.62;5.32;;;3.40;99.90;;;7.94;98.13;101172.19;1723562;73;24494;-73
2021/01/08 03:28:05;;;;;;;6.33;4.79;;;3.40;99.90;;;7.90;98.24;101173.84;1730109;73;24442;-73
2021/01/08 03:30:25;;;;;;;6.47;5.42;;;3.40;99.90;;;7.91;97.75;101172.11;1725308;73;24868;-75
2021/01/08 03:32:42;;;;;;;5.43;4.77;;;3.40;99.90;;;7.87;98.14;101163.80;1740288;73;24427;-74
2021/01/08 03:34:58;;;;;;;6.34;5.02;;;3.40;99.90;;;7.99;97.28;101161.52;1736643;72;24479;-74
2021/01/08 03:37:15;;;;;;;5.73;4.88;;;3.40;99.90;;;8.02;98.33;101163.78;1741025;73;24461;-73
2021/01/08 03:39:31;;;;;;;5.99;4.64;;;3.40;99.90;;;8.01;98.02;101160.73;1732898;73;24881;-76
2021/01/08 03:41:47;;;;;;;5.52;4.65;;;3.40;99.90;;;7.87;98.09;101159.91;1730246;73;24936;-74
2021/01/08 03:44:05;;;;;;;6.93;4.77;;;3.40;99.90;;;7.98;98.10;101171.45;1733847;73;24529;-73
2021/01/08 03:46:27;;;;;;;5.24;4.37;;;3.50;99.90;;;7.91;97.47;101169.52;1743033;72;24418;-73
2021/01/08 03:48:43;;;;;;;5.47;4.51;;;3.50;99.90;;;7.95;97.88;101170.07;1736428;73;24988;-73
2021/01/08 03:50:59;;;;;;;4.86;4.26;;;3.50;99.90;;;8.08;97.92;101170.41;1730264;73;25071;-73
2021/01/08 03:53:15;;;;;;;5.43;4.00;;;3.50;99.90;;;7.90;97.79;101173.84;1734950;73;24413;-75
2021/01/08 03:55:31;;;;;;;6.29;4.70;;;3.50;99.90;;;7.94;97.67;101173.48;1737019;72;24427;-74
2021/01/08 03:57:47;;;;;;;5.17;4.30;;;3.50;99.90;;;7.83;98.05;101170.62;1724498;74;24440;-74
2021/01/08 04:00:06;;;;;;;5.29;3.91;;;3.40;99.90;;;7.96;98.12;101170.11;1735200;73;24597;-73
2021/01/08 04:02:22;;;;;;;5.79;4.16;;;3.50;99.90;;;7.99;97.67;101173.19;1726225;73;24486;-73
2021/01/08 04:04:39;;;;;;;4.49;3.69;;;3.50;99.90;;;7.85;97.93;101173.25;1725516;73;24494;-72
2021/01/08 04:06:55;;;;;;;4.97;4.19;;;3.50;99.90;;;7.89;98.32;101172.52;1729778;73;24547;-73
2021/01/08 04:09:11;;;;;;;6.42;3.95;;;3.50;99.90;;;7.98;97.98;101180.52;1729494;73;24551;-74
2021/01/08 04:11:27;;;;;;;4.48;3.81;;;3.50;99.90;;;7.97;98.30;101180.04;1731350;73;24416;-74
2021/01/08 04:13:43;;;;;;;4.89;3.82;;;3.50;99.90;;;7.91;98.17;101176.00;1732366;73;24624;-73
2021/01/08 04:16:00;;;;;;;4.51;4.06;;;3.50;99.90;;;7.94;98.23;101177.37;1729945;73;24524;-75
2021/01/08 04:18:16;;;;;;;5.11;4.00;;;3.50;99.90;;;7.97;98.24;101180.04;1730846;73;24567;-73
2021/01/08 04:20:32;;;;;;;5.42;4.10;;;3.50;99.90;;;8.01;98.02;101180.59;1740689;73;24511;-74
2021/01/08 04:22:50;;;;;;;4.21;3.77;;;3.50;99.90;;;7.95;98.27;101185.19;1727376;73;24522;-73
2021/01/08 04:25:09;;;;;;;5.23;4.07;;;3.50;99.90;;;7.90;98.11;101180.33;1731087;73;24439;-75
2021/01/08 04:27:25;;;;;;;5.12;3.73;;;3.50;99.90;;;7.83;98.05;101176.20;1719616;74;25570;-75
2021/01/08 04:29:41;;;;;;;4.94;3.74;;;3.50;99.90;;;7.97;98.43;101179.63;1711000;73;24421;-74
2021/01/08 04:31:57;;;;;;;5.84;3.79;;;3.50;99.90;;;7.95;98.39;101181.30;1715809;74;24435;-75
2021/01/08 04:34:13;;;;;;;4.80;3.85;;;3.50;99.90;;;8.01;98.07;101184.48;1714176;74;24972;-75
2021/01/08 04:36:30;;;;;;;5.63;4.29;;;3.50;99.90;;;7.98;98.30;101183.11;1716985;73;24448;-75
2021/01/08 04:38:46;;;;;;;5.60;4.16;;;3.50;99.90;;;7.98;98.08;101182.70;1719020;73;24430;-74
2021/01/08 04:41:03;;;;;;;4.46;4.02;;;3.50;99.90;;;8.03;98.22;101190.60;1714736;74;24503;-73
2021/01/08 04:43:20;;;;;;;5.30;3.97;;;3.60;99.90;;;8.01;98.30;101191.86;1719114;74;24503;-73
2021/01/08 04:45:36;;;;;;;5.28;4.30;;;3.60;99.90;;;8.07;98.10;101192.42;1711416;74;24480;-73
2021/01/08 04:47:55;;;;;;;5.07;3.93;;;3.50;99.90;;;8.02;97.62;101192.71;1721090;74;24411;-74
2021/01/08 04:50:15;;;;;;;5.10;3.67;;;3.50;99.90;;;8.11;97.84;101189.08;1715503;74;24926;-74
2021/01/08 04:52:33;;;;;;;5.88;4.31;;;3.50;99.90;;;8.30;97.37;101190.90;1723214;74;25130;-73
2021/01/08 04:54:50;;;;;;;5.38;3.91;;;3.50;99.90;;;8.19;97.60;101188.86;1715116;74;24439;-73
2021/01/08 04:57:10;;;;;;;4.79;3.86;;;3.50;99.90;;;8.13;97.31;101189.98;1720033;74;24500;-76
2021/01/08 04:59:30;;;;;;;4.21;3.75;;;3.50;99.90;;;8.13;97.76;101186.09;1718127;74;24519;-74
2021/01/08 05:01:47;;;;;;;5.31;4.13;;;3.50;99.90;;;8.22;97.70;101190.23;1715634;73;24432;-74
2021/01/08 05:04:03;;;;;;;5.58;4.51;;;3.50;99.90;;;8.23;97.25;101184.23;1723576;74;24896;-74
2021/01/08 05:06:21;;;;;;;5.43;3.99;;;3.50;99.90;;;8.19;97.05;101191.45;1715820;74;24432;-74
2021/01/08 05:08:37;;;;;;;5.02;3.79;;;3.50;99.90;;;8.19;96.35;101189.72;1715035;74;24456;-74
2021/01/08 05:10:56;;;;;;;5.46;4.07;;;3.40;99.90;;;8.24;97.39;101186.86;1715391;74;24490;-73
2021/01/08 05:13:13;;;;;;;5.38;3.94;;;3.40;99.90;;;8.19;96.51;101192.75;1710277;74;24520;-73
2021/01/08 05:15:29;;;;;;;5.49;4.13;;;3.40;99.90;;;8.10;96.87;101196.39;1715756;74;24428;-75
2021/01/08 05:17:46;;;;;;;5.36;4.14;;;3.40;99.90;;;8.14;96.89;101202.13;1712021;74;24467;-73
2021/01/08 05:20:02;;;;;;;4.74;3.80;;;3.40;99.90;;;8.15;96.80;101200.87;1720360;74;24460;-73
2021/01/08 05:22:20;;;;;;;5.35;4.07;;;3.40;99.90;;;8.17;96.70;101203.06;1723693;74;24936;-76
2021/01/08 05:24:38;;;;;;;4.76;3.82;;;3.40;99.90;;;8.18;96.82;101208.73;1708153;74;24455;-73
2021/01/08 05:26:55;;;;;;;6.09;4.12;;;3.40;99.90;;;8.31;95.99;101207.36;1733489;72;24907;-73
2021/01/08 05:29:12;;;;;;;4.32;3.78;;;3.40;99.90;;;8.24;96.25;101210.20;1740728;73;24430;-74
2021/01/08 05:31:33;;;;;;;5.45;3.60;;;3.40;99.90;;;8.27;96.40;101214.58;1743322;73;24418;-74
2021/01/08 05:33:51;;;;;;;4.41;3.51;;;3.40;99.90;;;8.34;96.49;101213.91;1731435;73;24427;-76
2021/01/08 05:36:13;;;;;;;4.22;3.72;;;3.40;99.90;;;8.16;96.48;101214.69;1732017;73;24431;-76
2021/01/08 05:38:32;;;;;;;5.70;3.46;;;3.50;99.90;;;8.25;96.72;101212.39;1725541;73;24525;-75
2021/01/08 05:40:48;;;;;;;4.39;3.44;;;3.50;99.90;;;8.25;96.72;101215.84;1739420;73;24431;-75
2021/01/08 05:43:06;;;;;;;4.39;3.46;;;3.50;99.90;;;8.22;97.00;101213.14;1743157;73;24430;-74
2021/01/08 05:45:23;;;;;;;5.80;3.80;;;3.50;99.90;;;8.15;96.83;101218.14;1730784;73;24840;-74
2021/01/08 05:47:39;;;;;;;4.63;3.67;;;3.50;99.90;;;8.13;96.89;101212.91;1734802;73;24954;-73
2021/01/08 05:50:01;;;;;;;6.21;3.74;;;3.50;99.90;;;8.17;96.63;101219.06;1729845;73;24900;-73
2021/01/08 05:52:21;;;;;;;3.98;3.44;;;3.50;99.90;;;8.23;96.79;101223.14;1739843;73;24423;-73
2021/01/08 05:54:40;;;;;;;5.09;3.75;;;3.50;99.90;;;8.10;96.41;101224.91;1726256;73;24498;-73
2021/01/08 05:56:58;;;;;;;4.28;3.76;;;3.50;99.90;;;8.15;96.71;101224.21;1731528;73;24956;-73
2021/01/08 05:59:14;;;;;;;5.51;4.04;;;3.50;99.90;;;8.10;96.85;101225.80;1742161;73;24876;-72
2021/01/08 06:01:32;;;;;;;5.71;3.54;;;3.50;99.90;;;8.16;96.83;101231.14;1725770;73;24440;-75
2021/01/08 06:03:50;;;;;;;4.33;3.69;;;3.50;99.90;;;8.10;96.94;101230.98;1730437;73;24472;-74
2021/01/08 06:06:07;;;;;;;4.87;3.65;;;3.50;99.90;;;8.10;97.01;101230.98;1728032;73;24426;-73
2021/01/08 06:08:29;;;;;;;5.18;3.43;;;3.50;99.90;;;8.18;97.32;101228.18;1725701;73;24427;-73
2021/01/08 06:10:48;;;;;;;5.05;3.66;;;3.50;99.90;;;8.26;96.50;101237.08;1729905;73;24479;-73
2021/01/08 06:13:06;;;;;;;5.33;3.88;;;3.50;99.90;;;8.21;96.39;101242.93;1722324;73;24991;-73
2021/01/08 06:15:23;;;;;;;4.74;3.59;;;3.50;99.90;;;8.16;95.87;101240.63;1730458;73;24470;-74
2021/01/08 06:17:40;;;;;;;5.44;4.08;;;3.50;99.90;;;8.20;95.80;101235.59;1726109;73;24440;-74
2021/01/08 06:20:06;;;;;;;6.13;4.59;;;3.50;99.90;;;8.27;96.79;101240.11;1736240;73;24452;-73
2021/01/08 06:22:24;;;;;;;6.49;4.36;;;3.50;99.90;;;8.16;96.27;101241.52;1725630;73;24928;-75
2021/01/08 06:24:41;;;;;;;5.20;4.26;;;3.50;99.90;;;8.25;96.77;101248.71;1736158;73;24419;-74
2021/01/08 06:26:58;;;;;;;6.66;4.90;;;3.50;99.90;;;8.22;96.53;101246.00;1735480;73;24424;-74
2021/01/08 06:29:21;;;;;;;5.65;4.59;;;3.50;99.90;;;8.41;96.15;101252.16;1729663;73;24857;-74
2021/01/08 06:31:45;;;;;;;7.10;5.22;;;3.50;99.90;;;8.42;96.22;101246.13;1734916;73;24502;-74
2021/01/08 06:34:03;;;;;;;7.38;5.38;;;3.50;99.90;;;8.33;96.29;101249.34;1739349;73;24486;-75
2021/01/08 06:36:25;;;;;;;7.50;5.50;;;3.50;99.90;;;8.41;96.15;101249.57;1736775;73;24990;-73
2021/01/08 06:38:47;;;;;;;6.57;5.56;;;3.60;99.90;;;8.61;96.11;101253.13;1730308;73;24425;-73
2021/01/08 06:41:07;;;;;;;7.65;5.57;;;3.60;99.90;;;8.61;95.92;101249.23;1734488;73;24492;-72
2021/01/08 06:43:26;;;;;;;8.05;5.55;;;3.60;99.90;;;8.60;95.59;101254.39;1736459;73;24436;-73
2021/01/08 06:45:45;;;;;;;8.27;5.61;;;3.60;99.90;;;8.60;96.14;101257.84;1738605;73;24504;-74
2021/01/08 06:48:05;;;;;;;6.67;5.57;;;3.60;99.90;;;8.57;96.08;101255.17;1726359;73;24570;-73
2021/01/08 06:50:23;;;;;;;8.69;5.61;;;3.60;99.90;;;8.46;95.59;101261.80;1744643;73;24829;-75
2021/01/08 06:52:43;;;;;;;8.63;5.91;;;3.60;99.90;;;8.55;95.99;101262.03;1724475;74;24510;-75
2021/01/08 06:55:04;;;;;;;7.85;5.87;;;3.60;99.90;;;8.52;95.91;101260.66;1736290;73;24502;-73
2021/01/08 06:57:22;;;;;;;7.37;6.12;;;3.60;99.90;;;8.60;95.23;101260.87;1731137;73;24494;-74
2021/01/08 06:59:42;;;;;;;8.20;5.86;;;3.60;99.90;;;8.53;94.61;101266.33;1728429;73;24445;-73
2021/01/08 07:02:03;;;;;;;7.80;6.07;;;3.60;99.90;;;8.61;95.82;101270.00;1731145;73;24479;-73
2021/01/08 07:04:21;;;;;;;6.83;5.61;;;3.60;99.90;;;8.66;95.63;101275.30;1724296;74;24908;-75
2021/01/08 07:06:41;;;;;;;8.31;5.82;;;3.60;99.90;;;8.52;95.43;101277.97;1736264;73;24476;-75
2021/01/08 07:08:59;;;;;;;6.58;5.47;;;3.60;99.90;;;8.55;95.47;101279.34;1724356;74;24864;-72
2021/01/08 07:11:26;;;;;;;7.26;5.15;;;3.60;99.90;;;8.69;95.53;101277.97;1738113;73;24430;-75
2021/01/08 07:13:45;;;;;;;6.76;5.16;;;3.60;99.90;;;8.62;94.05;101283.83;1741198;73;24421;-73
2021/01/08 07:16:01;;;;;;;7.33;5.67;;;3.60;99.90;;;8.64;95.60;101288.65;1730041;73;24495;-74
2021/01/08 07:18:21;;;;;;;7.40;5.58;;;3.50;99.90;;;8.71;95.53;101288.83;1735241;73;24946;-73
2021/01/08 07:20:38;;;;;;;6.81;5.07;;;3.50;99.90;;;8.76;95.03;101290.23;1726469;73;24444;-74
2021/01/08 07:22:58;;;;;;;6.83;4.99;;;3.60;99.90;;;8.55;95.03;101293.17;1738772;73;24509;-73
2021/01/08 07:25:18;;;;;;;8.50;5.15;;;3.60;99.90;;;8.62;95.15;101298.11;1734590;72;24497;-74
2021/01/08 07:27:36;;;;;;;6.09;4.94;;;3.60;99.90;;;8.70;94.74;101299.18;1727539;73;24510;-74
2021/01/08 07:29:55;;;;;;;6.35;5.18;;;3.60;99.90;;;8.59;95.03;101305.81;1722686;74;24502;-73
2021/01/08 07:32:10;;;;;;;6.51;4.74;;;3.60;99.90;;;8.72;95.01;101306.59;1720064;72;24892;-73
2021/01/08 07:34:37;;;;;;;6.17;4.91;;;3.60;99.90;;;8.55;94.97;101308.75;1718747;72;24933;-74
2021/01/08 07:36:58;;;;;;;6.22;5.10;;;3.60;99.90;;;8.49;95.05;101307.30;1714709;74;24448;-73
2021/01/08 07:39:39;;;;;;;6.11;4.52;;;3.60;99.90;;;8.54;95.06;101319.98;1717971;73;24415;-72
2021/01/08 07:41:55;;;;;;;6.64;4.90;;;3.60;99.90;;;8.55;94.63;101319.13;1711681;74;25194;-72
2021/01/08 07:44:36;;;;;;;5.84;4.67;;;3.60;99.90;;;8.53;95.09;101324.72;1707804;74;24412;-76
2021/01/08 07:46:53;;;;;;;7.70;5.04;;;3.60;99.90;;;8.44;95.34;101323.60;1718245;74;24440;-74
2021/01/08 07:49:09;;;;;;;6.17;4.70;;;3.60;99.90;;;8.51;95.02;101326.39;1724423;74;24496;-73
2021/01/08 07:51:46;;;;;;;6.35;4.83;;;3.60;99.90;;;8.80;95.12;101329.73;1713887;74;24495;-76
2021/01/08 07:54:02;;;;;;;7.15;5.36;;;3.70;99.90;;;8.73;95.19;101332.59;1716937;74;24987;-74
2021/01/08 07:56:23;;;;;;;7.32;5.42;;;3.60;99.90;;;8.60;95.32;101332.25;1724166;74;24512;-74
2021/01/08 07:58:41;;;;;;;6.89;5.16;;;3.70;99.90;;;8.69;95.22;101342.87;1715631;74;24481;-74
2021/01/08 08:01:00;;;;;;;6.01;4.80;;;3.70;99.90;;;8.60;95.15;101341.34;1722022;74;24420;-73
2021/01/08 08:03:23;;;;;;;6.65;5.19;;;3.70;99.90;;;8.60;95.40;101348.69;1711871;74;24467;-73
2021/01/08 08:05:39;;;;;;;7.04;5.31;;;3.70;99.90;;;8.84;95.00;101349.73;1725057;74;24949;-76
2021/01/08 08:07:58;;;;;;;7.06;5.39;;;3.70;99.90;;;8.61;95.01;101358.25;1712647;72;24557;-76
2021/01/08 08:10:23;;;;;;;6.90;5.19;;;3.80;99.90;;;8.79;95.54;101360.01;1715153;73;24588;-74
2021/01/08 08:12:40;;;;;;;7.56;5.40;;;3.80;99.90;;;8.78;95.38;101362.56;1713213;74;24582;-75
2021/01/08 08:15:04;;;;;;;7.35;5.04;;;3.80;99.90;;;8.79;95.35;101363.91;1715330;74;25003;-75
2021/01/08 08:17:28;;;;;;;6.89;5.09;;;3.80;99.90;;;8.76;94.50;101369.43;1711028;74;24979;-75
2021/01/08 08:19:44;;;;;;;6.20;5.18;;;3.80;99.90;;;8.85;95.17;101367.09;1723699;74;24462;-76
2021/01/08 08:22:02;;;;;;;7.78;5.53;;;3.80;99.90;;;8.96;95.13;101370.40;1715144;74;24450;-75
2021/01/08 08:24:20;;;;;;;7.20;5.67;;;3.80;99.90;;;8.92;95.04;101372.88;1712790;74;24515;-75
2021/01/08 08:26:39;;;;;;;6.66;5.53;;;3.80;99.90;;;8.77;95.14;101377.25;1727223;72;24395;-75
2021/01/08 08:29:05;;;;;;;8.63;5.75;;;3.80;99.90;;;8.71;94.17;101381.44;1727234;72;24975;-75
2021/01/08 08:31:27;;;;;;;7.71;5.61;;;3.80;99.90;;;8.88;95.27;101384.05;1713961;72;25086;-74
2021/01/08 08:33:49;;;;;;;7.86;5.98;;;3.80;99.90;;;8.99;95.03;101389.09;1663004;76;25351;-75
2021/01/08 08:36:07;;;;;;;8.86;5.69;;;3.80;99.90;;;8.97;95.39;101394.25;1670170;75;24554;-76
2021/01/08 08:38:23;;;;;;;7.30;5.63;;;3.90;99.90;;;9.11;94.78;101399.78;1654468;75;24990;-76
2021/01/08 08:40:39;;;;;;;7.74;5.87;;;3.90;99.90;;;9.06;95.50;101402.68;1661989;75;24475;-76
2021/01/08 08:42:58;;;;;;;7.46;5.51;;;4.00;99.90;;;9.14;94.91;101407.24;1653041;75;24534;-74
2021/01/08 08:45:28;;;;;;;8.09;6.22;;;4.00;99.90;;;9.06;95.33;101403.98;1670597;75;24558;-75
2021/01/08 08:47:48;;;;;;;8.09;5.96;;;4.00;99.90;;;8.93;94.69;101405.83;1665981;75;24550;-76
2021/01/08 08:50:11;;;;;;;9.68;5.97;;;4.00;99.90;;;8.86;95.10;101409.09;1677914;75;24528;-74
2021/01/08 08:52:30;;;;;;;8.23;5.85;;;4.10;99.90;;;9.00;95.17;101412.52;1671373;76;24523;-76
2021/01/08 08:54:48;;;;;;;9.16;6.15;;;4.10;99.90;;;8.96;94.93;101414.99;1670736;75;24510;-75
2021/01/08 08:57:05;;;;;;;9.79;6.82;;;4.10;99.90;;;9.03;95.02;101416.48;1684263;75;24520;-77
2021/01/08 08:59:43;;;;;;;8.95;6.79;;;4.10;99.90;;;9.02;95.04;101417.74;1656155;75;25166;-77
2021/01/08 09:01:59;;;;;;;9.22;6.54;;;4.20;99.90;;;8.95;94.66;101424.49;1654757;76;25020;-77
2021/01/08 09:04:15;;;;;;;8.67;6.98;;;4.20;99.90;;;8.90;94.95;101425.20;1681844;75;24936;-75
2021/01/08 09:06:37;;;;;;;10.80;7.15;;;4.20;99.90;;;8.94;95.07;101421.86;1679629;75;25059;-77
2021/01/08 09:08:53;;;;;;;9.06;6.71;;;4.20;99.90;;;9.13;95.10;101422.80;1670204;75;25103;-76
2021/01/08 09:11:21;;;;;;;8.91;6.80;;;4.30;99.90;;;9.06;94.87;101428.66;1676110;75;25060;-76
2021/01/08 09:13:46;;;;;;;8.88;6.79;;;4.30;99.90;;;9.09;94.96;101436.11;1672313;75;24889;-76
2021/01/08 09:16:10;;;;;;;8.77;6.32;;;4.30;99.90;;;9.10;95.29;101442.20;1661241;75;24535;-78
2021/01/08 09:18:41;;;;;;;8.03;6.73;;;4.40;99.90;;;9.16;95.17;101438.45;1665962;75;24499;-76
2021/01/08 09:21:08;;;;;;;8.07;5.91;;;4.40;99.90;;;9.30;95.36;101440.98;1660751;75;24643;-77
2021/01/08 09:23:26;;;;;;;8.62;5.93;;;4.50;99.90;;;9.15;94.68;101443.20;1659202;75;25168;-75
2021/01/08 09:25:44;;;;;;;8.60;6.78;;;4.50;99.90;;;9.19;95.54;101441.13;1668430;75;24531;-74
2021/01/08 09:28:03;;;;;;;9.29;6.16;;;4.50;99.90;;;9.13;95.22;101443.58;1668505;75;24942;-73
2021/01/08 09:30:22;;;;;;;9.68;6.47;;;4.60;99.90;;;9.21;95.49;101445.95;1669688;75;24531;-75
2021/01/08 09:32:39;;;;;;;8.43;6.23;;;4.60;99.90;;;9.29;95.18;101443.13;1668397;75;25200;-75
2021/01/08 09:35:01;;;;;;;7.86;5.94;;;4.60;99.90;;;9.17;94.79;101449.30;1662896;75;24429;-76
2021/01/08 09:37:20;;;;;;;9.06;5.84;;;4.70;99.90;;;9.39;95.49;101451.59;1671374;75;25141;-76
2021/01/08 09:42:24;;;;;;;7.87;6.09;;;4.70;99.90;;;9.72;95.07;101453.70;1744829;72;25217;-74
2021/01/08 09:44:42;;;;;;;6.98;5.68;;;4.80;99.90;;;9.57;95.18;101460.27;1718344;73;24535;-75
2021/01/08 09:47:01;;;;;;;7.71;5.51;;;4.80;99.90;;;9.81;94.20;101457.84;1713922;73;25002;-75
2021/01/08 09:49:19;;;;;;;6.20;5.45;;;4.90;99.90;;;9.60;94.47;101462.94;1713929;73;24916;-75
2021/01/08 09:51:35;;;;;;;6.93;5.60;;;4.90;99.90;;;9.73;95.13;101459.80;1718321;73;24883;-74